Time,TemperatureF,DewpointF,PressureIn,WindDirection,WindDirectionDegrees,WindSpeedMPH,WindSpeedGustMPH,Humidity,HourlyPrecipIn,Conditions,Clouds,dailyrainin,SoftwareType,DateUTC
2013-12-15 00:12:00,-2.0,-13.0,30.30,NNW,341,1.0,8.0,57,0.00,,,0.00,,2013-12-15 06:12:00,
2013-12-15 00:22:00,-2.0,-13.0,30.29,NNW,327,3.0,9.0,57,0.00,,,0.00,,2013-12-15 06:22:00,
2013-12-15 00:42:00,-2.0,-14.0,30.29,NW,321,5.0,9.0,56,0.00,,,0.00,,2013-12-15 06:42:00,
2013-12-15 00:52:00,-2.0,-14.0,30.27,NNE,33,0.0,7.0,56,0.00,,,0.00,,2013-12-15 06:52:00,
2013-12-15 01:11:00,-2.0,-14.0,30.28,North,360,0.0,7.0,56,0.00,,,0.00,,2013-12-15 07:11:00,
2013-12-15 01:22:00,-3.0,-15.0,30.28,NNW,329,0.0,9.0,56,0.00,,,0.00,,2013-12-15 07:22:00,
2013-12-15 01:42:00,-2.0,-14.0,30.29,NNE,16,0.0,8.0,56,0.00,,,0.00,,2013-12-15 07:42:00,
2013-12-15 01:52:00,-2.0,-14.0,30.29,NNW,342,2.0,6.0,56,0.00,,,0.00,,2013-12-15 07:52:00,
2013-12-15 02:11:00,-3.0,-14.0,30.28,NNW,337,1.0,5.0,57,0.00,,,0.00,,2013-12-15 08:11:00,
2013-12-15 02:22:00,-3.0,-15.0,30.27,NE,45,0.0,9.0,56,0.00,,,0.00,,2013-12-15 08:22:00,
2013-12-15 02:42:00,-3.0,-14.0,30.28,ENE,64,1.0,4.0,57,0.00,,,0.00,,2013-12-15 08:42:00,
2013-12-15 02:52:00,-3.0,-14.0,30.29,North,355,0.0,4.0,58,0.00,,,0.00,,2013-12-15 08:52:00,
2013-12-15 03:11:00,-3.0,-15.0,30.29,NW,324,2.0,9.0,56,0.00,,,0.00,,2013-12-15 09:11:00,
2013-12-15 03:21:00,-3.0,-15.0,30.29,NNE,16,1.0,4.0,56,0.00,,,0.00,,2013-12-15 09:21:00,
2013-12-15 03:43:00,-3.0,-15.0,30.30,NNW,346,0.0,4.0,55,0.00,,,0.00,,2013-12-15 09:43:00,
2013-12-15 03:53:00,-3.0,-15.0,30.29,NNW,344,0.0,3.0,55,0.00,,,0.00,,2013-12-15 09:53:00,
2013-12-15 04:12:00,-3.0,-15.0,30.29,WNW,302,1.0,4.0,55,0.00,,,0.00,,2013-12-15 10:12:00,
2013-12-15 04:23:00,-3.0,-15.0,30.29,NNW,348,0.0,3.0,55,0.00,,,0.00,,2013-12-15 10:23:00,
2013-12-15 04:43:00,-3.0,-14.0,30.28,North,351,0.0,4.0,57,0.00,,,0.00,,2013-12-15 10:43:00,
2013-12-15 04:53:00,-3.0,-14.0,30.28,NNW,345,1.0,5.0,57,0.00,,,0.00,,2013-12-15 10:53:00,
2013-12-15 05:12:00,-3.0,-14.0,30.27,WNW,294,0.0,4.0,57,0.00,,,0.00,,2013-12-15 11:12:00,
2013-12-15 05:21:00,-3.0,-15.0,30.28,West,271,1.0,6.0,56,0.00,,,0.00,,2013-12-15 11:21:00,
2013-12-15 05:42:00,-3.0,-14.0,30.27,NNW,347,0.0,5.0,58,0.00,,,0.00,,2013-12-15 11:42:00,
2013-12-15 05:52:00,-3.0,-14.0,30.26,NNW,328,0.0,5.0,58,0.00,,,0.00,,2013-12-15 11:52:00,
2013-12-15 06:12:00,-3.0,-14.0,30.26,NNW,342,0.0,3.0,58,0.00,,,0.00,,2013-12-15 12:12:00,
2013-12-15 06:22:00,-3.0,-14.0,30.26,NNW,348,0.0,4.0,58,0.00,,,0.00,,2013-12-15 12:22:00,
2013-12-15 06:42:00,-3.0,-14.0,30.27,NW,315,0.0,3.0,58,0.00,,,0.00,,2013-12-15 12:42:00,
2013-12-15 06:52:00,-3.0,-14.0,30.26,West,269,0.0,3.0,58,0.00,,,0.00,,2013-12-15 12:52:00,
2013-12-15 07:11:00,-3.0,-14.0,30.27,NNW,338,1.0,6.0,57,0.00,,,0.00,,2013-12-15 13:11:00,
2013-12-15 07:21:00,-3.0,-14.0,30.27,NNE,30,0.0,5.0,57,0.00,,,0.00,,2013-12-15 13:21:00,
2013-12-15 07:42:00,-2.0,-13.0,30.27,NNW,340,1.0,6.0,57,0.00,,,0.00,,2013-12-15 13:42:00,
2013-12-15 07:52:00,-2.0,-13.0,30.27,NNE,26,0.0,5.0,57,0.00,,,0.00,,2013-12-15 13:52:00,
2013-12-15 08:11:00,-2.0,-13.0,30.28,NNW,348,0.0,6.0,58,0.00,,,0.00,,2013-12-15 14:11:00,
2013-12-15 08:22:00,-2.0,-13.0,30.27,NNE,26,0.0,5.0,58,0.00,,,0.00,,2013-12-15 14:22:00,
2013-12-15 08:42:00,-2.0,-13.0,30.28,NNE,19,1.0,6.0,58,0.00,,,0.00,,2013-12-15 14:42:00,
2013-12-15 08:52:00,-2.0,-13.0,30.27,North,5,0.0,5.0,58,0.00,,,0.00,,2013-12-15 14:52:00,
2013-12-15 09:12:00,-2.0,-13.0,30.27,NW,325,0.0,6.0,59,0.00,,,0.00,,2013-12-15 15:12:00,
2013-12-15 09:22:00,-2.0,-13.0,30.27,North,355,0.0,5.0,59,0.00,,,0.00,,2013-12-15 15:22:00,
2013-12-15 09:43:00,-2.0,-13.0,30.28,NNE,17,1.0,5.0,59,0.00,,,0.00,,2013-12-15 15:43:00,
2013-12-15 09:53:00,-2.0,-13.0,30.27,NNE,24,0.0,4.0,59,0.00,,,0.00,,2013-12-15 15:53:00,
2013-12-15 10:04:00,-2.0,-13.0,30.27,NNE,24,0.0,4.0,59,0.00,,,0.00,,2013-12-15 16:04:00,
2013-12-15 10:13:00,-2.0,-13.0,30.27,NNE,24,0.0,4.0,59,0.00,,,0.00,,2013-12-15 16:13:00,
2013-12-15 10:23:00,-2.0,-13.0,30.27,NE,41,0.0,5.0,58,0.00,,,0.00,,2013-12-15 16:23:00,
2013-12-15 10:43:00,-2.0,-13.0,30.27,North,355,1.0,4.0,58,0.00,,,0.00,,2013-12-15 16:43:00,
2013-12-15 10:52:00,-2.0,-13.0,30.27,ENE,68,5.0,8.0,58,0.00,,,0.00,,2013-12-15 16:52:00,
2013-12-15 11:12:00,-2.0,-13.0,30.27,East,83,2.0,5.0,58,0.00,,,0.00,,2013-12-15 17:12:00,
2013-12-15 11:22:00,-2.0,-13.0,30.27,ENE,62,3.0,7.0,58,0.00,,,0.00,,2013-12-15 17:22:00,
2013-12-15 11:42:00,-2.0,-13.0,30.26,East,92,2.0,7.0,58,0.00,,,0.00,,2013-12-15 17:42:00,
2013-12-15 11:52:00,-2.0,-13.0,30.26,ENE,74,5.0,8.0,58,0.00,,,0.00,,2013-12-15 17:52:00,
2013-12-15 12:12:00,-1.0,-12.0,30.25,East,90,3.0,9.0,58,0.00,,,0.00,,2013-12-15 18:12:00,
2013-12-15 12:21:00,-1.0,-13.0,30.24,East,80,1.0,5.0,57,0.00,,,0.00,,2013-12-15 18:21:00,
2013-12-15 12:42:00,-1.0,-13.0,30.24,ESE,105,2.0,5.0,57,0.00,,,0.00,,2013-12-15 18:42:00,
2013-12-15 12:52:00,-1.0,-13.0,30.23,East,86,1.0,5.0,57,0.00,,,0.00,,2013-12-15 18:52:00,
2013-12-15 13:11:00,0.0,-11.0,30.22,ESE,103,2.0,5.0,58,0.00,,,0.00,,2013-12-15 19:11:00,
2013-12-15 13:21:00,0.0,-12.0,30.22,ENE,72,3.0,7.0,57,0.00,,,0.00,,2013-12-15 19:21:00,
2013-12-15 13:42:00,0.0,-12.0,30.21,ENE,78,4.0,8.0,57,0.00,,,0.00,,2013-12-15 19:42:00,
2013-12-15 13:52:00,0.0,-12.0,30.21,ENE,74,2.0,6.0,57,0.00,,,0.00,,2013-12-15 19:52:00,
2013-12-15 14:11:00,0.0,-11.0,30.21,East,80,3.0,7.0,58,0.00,,,0.00,,2013-12-15 20:11:00,
2013-12-15 14:22:00,0.0,-11.0,30.20,ESE,102,1.0,5.0,59,0.00,,,0.00,,2013-12-15 20:22:00,
2013-12-15 14:42:00,0.0,-11.0,30.20,East,97,1.0,6.0,59,0.00,,,0.00,,2013-12-15 20:42:00,
2013-12-15 14:52:00,0.0,-11.0,30.20,ESE,105,1.0,3.0,60,0.00,,,0.00,,2013-12-15 20:52:00,
2013-12-15 15:21:00,0.0,-10.0,30.19,SE,126,2.0,4.0,61,0.00,,,0.00,,2013-12-15 21:21:00,
2013-12-15 15:43:00,0.0,-10.0,30.19,ESE,112,2.0,6.0,61,0.00,,,0.00,,2013-12-15 21:43:00,
2013-12-15 15:53:00,0.0,-10.0,30.20,East,99,1.0,6.0,62,0.00,,,0.00,,2013-12-15 21:53:00,
2013-12-15 16:12:00,0.0,-10.0,30.19,East,91,4.0,7.0,63,0.00,,,0.00,,2013-12-15 22:12:00,
2013-12-15 16:23:00,0.0,-10.0,30.19,East,84,3.0,7.0,62,0.00,,,0.00,,2013-12-15 22:23:00,
2013-12-15 16:43:00,0.0,-10.0,30.19,East,96,3.0,6.0,62,0.00,,,0.00,,2013-12-15 22:43:00,
2013-12-15 16:52:00,0.0,-10.0,30.20,East,92,2.0,7.0,62,0.00,,,0.00,,2013-12-15 22:52:00,
2013-12-15 17:12:00,0.0,-10.0,30.20,ESE,107,2.0,4.0,62,0.00,,,0.00,,2013-12-15 23:12:00,
2013-12-15 17:22:00,0.0,-10.0,30.20,East,97,2.0,5.0,63,0.00,,,0.00,,2013-12-15 23:22:00,
2013-12-15 17:52:00,1.0,-9.0,30.21,ESE,118,0.0,3.0,62,0.00,,,0.00,,2013-12-15 23:52:00,
2013-12-15 18:11:00,1.0,-9.0,30.20,ESE,112,1.0,3.0,63,0.00,,,0.00,,2013-12-16 00:11:00,
2013-12-15 18:22:00,1.0,-8.0,30.18,ESE,105,2.0,4.0,64,0.00,,,0.00,,2013-12-16 00:22:00,
2013-12-15 18:42:00,1.0,-8.0,30.19,ESE,123,2.0,5.0,64,0.00,,,0.00,,2013-12-16 00:42:00,
2013-12-15 18:52:00,1.0,-8.0,30.19,ESE,120,3.0,7.0,65,0.00,,,0.00,,2013-12-16 00:52:00,
2013-12-15 19:11:00,1.0,-8.0,30.18,SSE,158,5.0,10.0,64,0.00,,,0.00,,2013-12-16 01:11:00,
2013-12-15 19:22:00,2.0,-7.0,30.18,SE,144,2.0,8.0,64,0.00,,,0.00,,2013-12-16 01:22:00,
2013-12-15 19:42:00,2.0,-7.0,30.20,ESE,119,2.0,4.0,64,0.00,,,0.00,,2013-12-16 01:42:00,
2013-12-15 19:52:00,2.0,-7.0,30.18,ESE,109,4.0,7.0,64,0.00,,,0.00,,2013-12-16 01:52:00,
2013-12-15 20:11:00,2.0,-7.0,30.19,SE,134,2.0,7.0,64,0.00,,,0.00,,2013-12-16 02:11:00,
2013-12-15 20:22:00,2.0,-8.0,30.18,SE,146,5.0,11.0,63,0.00,,,0.00,,2013-12-16 02:22:00,
2013-12-15 20:42:00,2.0,-8.0,30.18,SSE,147,3.0,9.0,63,0.00,,,0.00,,2013-12-16 02:42:00,
2013-12-15 20:52:00,2.0,-8.0,30.19,SE,140,4.0,8.0,63,0.00,,,0.00,,2013-12-16 02:52:00,
2013-12-15 21:21:00,2.0,-8.0,30.17,SE,134,4.0,10.0,63,0.00,,,0.00,,2013-12-16 03:21:00,
2013-12-15 21:43:00,2.0,-8.0,30.16,SE,143,5.0,11.0,63,0.00,,,0.00,,2013-12-16 03:43:00,
2013-12-15 21:54:00,3.0,-6.0,30.16,SE,132,5.0,13.0,64,0.00,,,0.00,,2013-12-16 03:54:00,
2013-12-15 22:13:00,3.0,-7.0,30.14,SE,127,5.0,11.0,63,0.00,,,0.00,,2013-12-16 04:13:00,
2013-12-15 22:23:00,3.0,-7.0,30.15,SSE,148,8.0,12.0,63,0.00,,,0.00,,2013-12-16 04:23:00,
2013-12-15 22:42:00,3.0,-7.0,30.15,SE,138,7.0,12.0,63,0.00,,,0.00,,2013-12-16 04:42:00,
2013-12-15 22:52:00,3.0,-7.0,30.16,SE,139,4.0,11.0,63,0.00,,,0.00,,2013-12-16 04:52:00,
2013-12-15 23:12:00,3.0,-7.0,30.16,SE,127,5.0,10.0,63,0.00,,,0.00,,2013-12-16 05:12:00,
2013-12-15 23:22:00,3.0,-6.0,30.15,ESE,123,4.0,10.0,64,0.00,,,0.00,,2013-12-16 05:22:00,
2013-12-15 23:43:00,4.0,-5.0,30.15,SSE,148,5.0,13.0,64,0.00,,,0.00,,2013-12-16 05:43:00,
2013-12-15 23:53:00,4.0,-5.0,30.14,SE,125,5.0,10.0,64,0.00,,,0.00,,2013-12-16 05:53:00,